sensor_id;sensor_type;location;lat;lon;timestamp;P1;durP1;ratioP1;P2;durP2;ratioP2
85243;SDS011;75643;56.928;41.094;2024-03-02T00:01:16;35.38;;;15.63;;
85243;SDS011;75643;56.928;41.094;2024-03-02T00:03:43;32.85;;;15.15;;
85243;SDS011;75643;56.928;41.094;2024-03-02T00:06:10;32.13;;;14.60;;
85243;SDS011;75643;56.928;41.094;2024-03-02T00:08:36;34.05;;;15.20;;
85243;SDS011;75643;56.928;41.094;2024-03-02T00:11:02;30.55;;;14.43;;
85243;SDS011;75643;56.928;41.094;2024-03-02T00:13:29;33.45;;;15.02;;
85243;SDS011;75643;56.928;41.094;2024-03-02T00:15:57;31.65;;;15.00;;
85243;SDS011;75643;56.928;41.094;2024-03-02T00:18:30;29.95;;;14.25;;
85243;SDS011;75643;56.928;41.094;2024-03-02T00:20:57;32.88;;;14.98;;
85243;SDS011;75643;56.928;41.094;2024-03-02T00:23:24;29.60;;;13.93;;
85243;SDS011;75643;56.928;41.094;2024-03-02T00:25:55;25.75;;;13.82;;
85243;SDS011;75643;56.928;41.094;2024-03-02T00:28:26;28.98;;;14.70;;
85243;SDS011;75643;56.928;41.094;2024-03-02T00:33:26;28.52;;;14.90;;
85243;SDS011;75643;56.928;41.094;2024-03-02T00:35:55;32.22;;;15.27;;
85243;SDS011;75643;56.928;41.094;2024-03-02T00:38:22;34.38;;;15.35;;
85243;SDS011;75643;56.928;41.094;2024-03-02T00:40:49;34.10;;;15.40;;
85243;SDS011;75643;56.928;41.094;2024-03-02T00:46:02;33.97;;;14.55;;
85243;SDS011;75643;56.928;41.094;2024-03-02T00:48:29;32.83;;;15.32;;
85243;SDS011;75643;56.928;41.094;2024-03-02T00:50:57;32.17;;;15.60;;
85243;SDS011;75643;56.928;41.094;2024-03-02T00:53:24;37.38;;;17.08;;
85243;SDS011;75643;56.928;41.094;2024-03-02T00:55:52;30.63;;;15.43;;
85243;SDS011;75643;56.928;41.094;2024-03-02T00:58:18;33.03;;;14.45;;
85243;SDS011;75643;56.928;41.094;2024-03-02T01:00:44;31.77;;;15.60;;
85243;SDS011;75643;56.928;41.094;2024-03-02T01:03:10;30.90;;;15.23;;
85243;SDS011;75643;56.928;41.094;2024-03-02T01:05:39;36.85;;;17.00;;
85243;SDS011;75643;56.928;41.094;2024-03-02T01:08:08;30.13;;;14.90;;
85243;SDS011;75643;56.928;41.094;2024-03-02T01:10:35;33.28;;;14.50;;
85243;SDS011;75643;56.928;41.094;2024-03-02T01:13:01;33.13;;;15.73;;
85243;SDS011;75643;56.928;41.094;2024-03-02T01:15:27;32.72;;;13.63;;
85243;SDS011;75643;56.928;41.094;2024-03-02T01:17:54;37.10;;;15.07;;
85243;SDS011;75643;56.928;41.094;2024-03-02T01:20:20;39.85;;;15.73;;
85243;SDS011;75643;56.928;41.094;2024-03-02T01:22:47;37.95;;;16.42;;
85243;SDS011;75643;56.928;41.094;2024-03-02T01:25:13;38.80;;;14.77;;
85243;SDS011;75643;56.928;41.094;2024-03-02T01:27:39;33.90;;;16.30;;
85243;SDS011;75643;56.928;41.094;2024-03-02T01:30:06;35.13;;;14.68;;
85243;SDS011;75643;56.928;41.094;2024-03-02T01:32:32;36.78;;;15.75;;
85243;SDS011;75643;56.928;41.094;2024-03-02T01:34:58;42.80;;;16.45;;
85243;SDS011;75643;56.928;41.094;2024-03-02T01:37:25;43.28;;;17.30;;
85243;SDS011;75643;56.928;41.094;2024-03-02T01:39:51;37.28;;;15.40;;
85243;SDS011;75643;56.928;41.094;2024-03-02T01:42:17;40.10;;;16.17;;
85243;SDS011;75643;56.928;41.094;2024-03-02T01:44:43;38.60;;;15.38;;
85243;SDS011;75643;56.928;41.094;2024-03-02T01:47:09;32.50;;;13.95;;
85243;SDS011;75643;56.928;41.094;2024-03-02T01:49:35;34.85;;;14.30;;
85243;SDS011;75643;56.928;41.094;2024-03-02T01:52:03;45.05;;;17.25;;
85243;SDS011;75643;56.928;41.094;2024-03-02T01:54:29;39.30;;;16.23;;
85243;SDS011;75643;56.928;41.094;2024-03-02T01:56:59;28.23;;;13.23;;
85243;SDS011;75643;56.928;41.094;2024-03-02T01:59:25;42.65;;;14.85;;
85243;SDS011;75643;56.928;41.094;2024-03-02T02:01:51;35.55;;;15.05;;
85243;SDS011;75643;56.928;41.094;2024-03-02T02:04:18;37.10;;;15.32;;
85243;SDS011;75643;56.928;41.094;2024-03-02T02:06:44;42.65;;;15.60;;
85243;SDS011;75643;56.928;41.094;2024-03-02T02:09:10;41.55;;;15.55;;
85243;SDS011;75643;56.928;41.094;2024-03-02T02:11:37;34.15;;;12.80;;
85243;SDS011;75643;56.928;41.094;2024-03-02T02:14:04;43.55;;;15.55;;
85243;SDS011;75643;56.928;41.094;2024-03-02T02:16:32;37.30;;;15.43;;
85243;SDS011;75643;56.928;41.094;2024-03-02T02:18:58;37.38;;;14.88;;
85243;SDS011;75643;56.928;41.094;2024-03-02T02:21:24;33.08;;;13.93;;
85243;SDS011;75643;56.928;41.094;2024-03-02T02:23:51;32.80;;;12.95;;
85243;SDS011;75643;56.928;41.094;2024-03-02T02:26:17;42.95;;;16.38;;
85243;SDS011;75643;56.928;41.094;2024-03-02T02:28:44;39.10;;;16.40;;
85243;SDS011;75643;56.928;41.094;2024-03-02T02:31:16;32.10;;;14.85;;
85243;SDS011;75643;56.928;41.094;2024-03-02T02:36:08;28.38;;;13.35;;
85243;SDS011;75643;56.928;41.094;2024-03-02T02:38:37;29.02;;;12.45;;
85243;SDS011;75643;56.928;41.094;2024-03-02T02:41:06;29.42;;;12.43;;
85243;SDS011;75643;56.928;41.094;2024-03-02T02:43:33;27.20;;;12.68;;
85243;SDS011;75643;56.928;41.094;2024-03-02T02:45:59;28.23;;;12.57;;
85243;SDS011;75643;56.928;41.094;2024-03-02T02:48:25;24.95;;;12.02;;
85243;SDS011;75643;56.928;41.094;2024-03-02T02:50:51;24.20;;;11.30;;
85243;SDS011;75643;56.928;41.094;2024-03-02T02:53:18;22.67;;;11.25;;
85243;SDS011;75643;56.928;41.094;2024-03-02T02:55:44;26.85;;;11.43;;
85243;SDS011;75643;56.928;41.094;2024-03-02T02:58:10;25.55;;;12.43;;
85243;SDS011;75643;56.928;41.094;2024-03-02T03:00:36;24.55;;;11.23;;
85243;SDS011;75643;56.928;41.094;2024-03-02T03:03:02;21.08;;;10.75;;
85243;SDS011;75643;56.928;41.094;2024-03-02T03:05:28;24.15;;;10.90;;
85243;SDS011;75643;56.928;41.094;2024-03-02T03:07:55;24.95;;;10.70;;
85243;SDS011;75643;56.928;41.094;2024-03-02T03:10:21;20.45;;;11.02;;
85243;SDS011;75643;56.928;41.094;2024-03-02T03:12:49;21.30;;;10.10;;
85243;SDS011;75643;56.928;41.094;2024-03-02T03:15:15;20.20;;;10.23;;
85243;SDS011;75643;56.928;41.094;2024-03-02T03:17:42;21.85;;;10.20;;
85243;SDS011;75643;56.928;41.094;2024-03-02T03:20:08;19.00;;;9.77;;
85243;SDS011;75643;56.928;41.094;2024-03-02T03:22:41;20.63;;;9.70;;
85243;SDS011;75643;56.928;41.094;2024-03-02T03:25:07;19.63;;;9.88;;
85243;SDS011;75643;56.928;41.094;2024-03-02T03:27:36;19.08;;;10.48;;
85243;SDS011;75643;56.928;41.094;2024-03-02T03:30:03;16.33;;;8.15;;
85243;SDS011;75643;56.928;41.094;2024-03-02T03:32:30;11.75;;;7.03;;
85243;SDS011;75643;56.928;41.094;2024-03-02T03:34:56;21.40;;;10.48;;
85243;SDS011;75643;56.928;41.094;2024-03-02T03:37:22;22.83;;;10.73;;
85243;SDS011;75643;56.928;41.094;2024-03-02T03:39:50;18.25;;;8.82;;
85243;SDS011;75643;56.928;41.094;2024-03-02T03:42:17;17.90;;;7.28;;
85243;SDS011;75643;56.928;41.094;2024-03-02T03:44:43;24.55;;;11.93;;
85243;SDS011;75643;56.928;41.094;2024-03-02T03:47:09;24.52;;;10.85;;
85243;SDS011;75643;56.928;41.094;2024-03-02T03:49:35;20.60;;;10.05;;
85243;SDS011;75643;56.928;41.094;2024-03-02T03:52:01;23.17;;;10.32;;
85243;SDS011;75643;56.928;41.094;2024-03-02T03:54:27;19.17;;;10.68;;
85243;SDS011;75643;56.928;41.094;2024-03-02T03:56:54;21.77;;;9.63;;
85243;SDS011;75643;56.928;41.094;2024-03-02T03:59:20;19.58;;;10.05;;
85243;SDS011;75643;56.928;41.094;2024-03-02T04:01:46;27.17;;;12.20;;
85243;SDS011;75643;56.928;41.094;2024-03-02T04:04:12;29.08;;;11.63;;
85243;SDS011;75643;56.928;41.094;2024-03-02T04:06:38;26.00;;;11.52;;
85243;SDS011;75643;56.928;41.094;2024-03-02T04:09:04;17.02;;;9.38;;
85243;SDS011;75643;56.928;41.094;2024-03-02T04:11:30;14.30;;;8.48;;
85243;SDS011;75643;56.928;41.094;2024-03-02T04:13:57;13.43;;;8.07;;
85243;SDS011;75643;56.928;41.094;2024-03-02T04:16:23;11.38;;;6.95;;
85243;SDS011;75643;56.928;41.094;2024-03-02T04:18:49;17.42;;;8.00;;
85243;SDS011;75643;56.928;41.094;2024-03-02T04:21:15;13.60;;;7.95;;
85243;SDS011;75643;56.928;41.094;2024-03-02T04:23:42;13.35;;;7.38;;
85243;SDS011;75643;56.928;41.094;2024-03-02T04:26:08;13.68;;;7.43;;
85243;SDS011;75643;56.928;41.094;2024-03-02T04:28:34;14.30;;;7.82;;
85243;SDS011;75643;56.928;41.094;2024-03-02T04:31:00;13.93;;;7.53;;
85243;SDS011;75643;56.928;41.094;2024-03-02T04:33:26;22.98;;;10.32;;
85243;SDS011;75643;56.928;41.094;2024-03-02T04:35:52;13.63;;;7.38;;
85243;SDS011;75643;56.928;41.094;2024-03-02T04:38:19;19.73;;;9.02;;
85243;SDS011;75643;56.928;41.094;2024-03-02T04:40:45;17.70;;;9.07;;
85243;SDS011;75643;56.928;41.094;2024-03-02T04:43:11;19.23;;;8.68;;
85243;SDS011;75643;56.928;41.094;2024-03-02T04:45:42;13.30;;;7.68;;
85243;SDS011;75643;56.928;41.094;2024-03-02T04:48:09;13.25;;;7.95;;
85243;SDS011;75643;56.928;41.094;2024-03-02T04:50:35;13.68;;;7.63;;
85243;SDS011;75643;56.928;41.094;2024-03-02T04:53:01;13.43;;;7.20;;
85243;SDS011;75643;56.928;41.094;2024-03-02T04:55:28;14.15;;;7.95;;
85243;SDS011;75643;56.928;41.094;2024-03-02T04:57:54;15.60;;;7.43;;
85243;SDS011;75643;56.928;41.094;2024-03-02T05:00:21;13.45;;;7.45;;
85243;SDS011;75643;56.928;41.094;2024-03-02T05:02:48;14.02;;;8.23;;
85243;SDS011;75643;56.928;41.094;2024-03-02T05:05:14;15.05;;;8.07;;
85243;SDS011;75643;56.928;41.094;2024-03-02T05:07:43;11.32;;;6.30;;
85243;SDS011;75643;56.928;41.094;2024-03-02T05:10:10;11.48;;;6.57;;
85243;SDS011;75643;56.928;41.094;2024-03-02T05:12:37;13.18;;;6.97;;
85243;SDS011;75643;56.928;41.094;2024-03-02T05:15:22;13.50;;;7.15;;
85243;SDS011;75643;56.928;41.094;2024-03-02T05:17:48;12.88;;;7.97;;
85243;SDS011;75643;56.928;41.094;2024-03-02T05:20:15;12.13;;;7.30;;
85243;SDS011;75643;56.928;41.094;2024-03-02T05:22:42;11.40;;;6.93;;
85243;SDS011;75643;56.928;41.094;2024-03-02T05:25:09;12.52;;;7.15;;
85243;SDS011;75643;56.928;41.094;2024-03-02T05:27:38;15.43;;;7.60;;
85243;SDS011;75643;56.928;41.094;2024-03-02T05:30:04;13.07;;;6.50;;
85243;SDS011;75643;56.928;41.094;2024-03-02T05:32:32;16.98;;;8.32;;
85243;SDS011;75643;56.928;41.094;2024-03-02T05:34:59;16.23;;;8.52;;
85243;SDS011;75643;56.928;41.094;2024-03-02T05:37:25;15.80;;;8.15;;
85243;SDS011;75643;56.928;41.094;2024-03-02T05:39:51;14.27;;;8.73;;
85243;SDS011;75643;56.928;41.094;2024-03-02T05:42:18;18.15;;;7.70;;
85243;SDS011;75643;56.928;41.094;2024-03-02T05:44:44;14.55;;;7.90;;
85243;SDS011;75643;56.928;41.094;2024-03-02T05:47:10;15.15;;;7.70;;
85243;SDS011;75643;56.928;41.094;2024-03-02T05:49:36;19.23;;;8.75;;
85243;SDS011;75643;56.928;41.094;2024-03-02T05:52:03;11.32;;;6.93;;
85243;SDS011;75643;56.928;41.094;2024-03-02T05:54:29;14.95;;;8.23;;
85243;SDS011;75643;56.928;41.094;2024-03-02T05:56:55;15.57;;;7.45;;
85243;SDS011;75643;56.928;41.094;2024-03-02T05:59:21;12.45;;;7.20;;
85243;SDS011;75643;56.928;41.094;2024-03-02T06:01:48;10.50;;;6.00;;
85243;SDS011;75643;56.928;41.094;2024-03-02T06:04:17;11.07;;;5.75;;
85243;SDS011;75643;56.928;41.094;2024-03-02T06:06:44;10.50;;;6.18;;
85243;SDS011;75643;56.928;41.094;2024-03-02T06:09:10;12.68;;;7.20;;
85243;SDS011;75643;56.928;41.094;2024-03-02T06:11:41;10.50;;;6.40;;
85243;SDS011;75643;56.928;41.094;2024-03-02T06:14:10;10.35;;;6.05;;
85243;SDS011;75643;56.928;41.094;2024-03-02T06:16:36;12.35;;;6.72;;
85243;SDS011;75643;56.928;41.094;2024-03-02T06:19:02;11.40;;;7.07;;
85243;SDS011;75643;56.928;41.094;2024-03-02T06:21:28;11.95;;;7.18;;
85243;SDS011;75643;56.928;41.094;2024-03-02T06:23:54;13.02;;;7.65;;
85243;SDS011;75643;56.928;41.094;2024-03-02T06:26:21;19.23;;;9.13;;
85243;SDS011;75643;56.928;41.094;2024-03-02T06:28:47;13.02;;;8.23;;
85243;SDS011;75643;56.928;41.094;2024-03-02T06:31:13;15.18;;;7.78;;
85243;SDS011;75643;56.928;41.094;2024-03-02T06:33:39;13.85;;;7.97;;
85243;SDS011;75643;56.928;41.094;2024-03-02T06:36:07;16.55;;;9.27;;
85243;SDS011;75643;56.928;41.094;2024-03-02T06:38:35;18.05;;;9.35;;
85243;SDS011;75643;56.928;41.094;2024-03-02T06:41:02;14.85;;;8.10;;
85243;SDS011;75643;56.928;41.094;2024-03-02T06:43:29;15.60;;;7.95;;
85243;SDS011;75643;56.928;41.094;2024-03-02T06:45:55;14.68;;;8.25;;
85243;SDS011;75643;56.928;41.094;2024-03-02T06:48:22;11.48;;;7.13;;
85243;SDS011;75643;56.928;41.094;2024-03-02T06:50:49;13.98;;;8.40;;
85243;SDS011;75643;56.928;41.094;2024-03-02T06:53:16;15.07;;;7.78;;
85243;SDS011;75643;56.928;41.094;2024-03-02T06:55:43;15.60;;;9.27;;
85243;SDS011;75643;56.928;41.094;2024-03-02T06:58:11;16.35;;;8.23;;
85243;SDS011;75643;56.928;41.094;2024-03-02T07:00:37;18.60;;;10.45;;
85243;SDS011;75643;56.928;41.094;2024-03-02T07:03:06;14.82;;;7.97;;
85243;SDS011;75643;56.928;41.094;2024-03-02T07:05:33;14.07;;;8.02;;
85243;SDS011;75643;56.928;41.094;2024-03-02T07:08:00;13.10;;;8.23;;
85243;SDS011;75643;56.928;41.094;2024-03-02T07:10:27;12.88;;;7.72;;
85243;SDS011;75643;56.928;41.094;2024-03-02T07:12:53;13.68;;;6.95;;
85243;SDS011;75643;56.928;41.094;2024-03-02T07:15:19;13.40;;;6.90;;
85243;SDS011;75643;56.928;41.094;2024-03-02T07:18:06;13.68;;;8.63;;
85243;SDS011;75643;56.928;41.094;2024-03-02T07:20:32;13.20;;;8.07;;
85243;SDS011;75643;56.928;41.094;2024-03-02T07:22:59;13.23;;;8.25;;
85243;SDS011;75643;56.928;41.094;2024-03-02T07:25:25;13.00;;;7.80;;
85243;SDS011;75643;56.928;41.094;2024-03-02T07:27:51;18.08;;;9.57;;
85243;SDS011;75643;56.928;41.094;2024-03-02T07:30:18;14.50;;;9.10;;
85243;SDS011;75643;56.928;41.094;2024-03-02T07:32:44;10.48;;;7.03;;
85243;SDS011;75643;56.928;41.094;2024-03-02T07:35:12;12.80;;;7.75;;
85243;SDS011;75643;56.928;41.094;2024-03-02T07:37:39;13.00;;;7.57;;
85243;SDS011;75643;56.928;41.094;2024-03-02T07:40:06;10.63;;;6.97;;
85243;SDS011;75643;56.928;41.094;2024-03-02T07:42:39;18.33;;;8.70;;
85243;SDS011;75643;56.928;41.094;2024-03-02T07:45:07;14.32;;;8.48;;
85243;SDS011;75643;56.928;41.094;2024-03-02T07:47:34;12.80;;;7.53;;
85243;SDS011;75643;56.928;41.094;2024-03-02T07:50:00;11.25;;;6.45;;
85243;SDS011;75643;56.928;41.094;2024-03-02T07:52:27;12.43;;;7.50;;
85243;SDS011;75643;56.928;41.094;2024-03-02T07:54:54;9.60;;;5.80;;
85243;SDS011;75643;56.928;41.094;2024-03-02T07:57:21;13.80;;;8.32;;
85243;SDS011;75643;56.928;41.094;2024-03-02T07:59:47;9.05;;;6.60;;
85243;SDS011;75643;56.928;41.094;2024-03-02T08:02:15;10.32;;;6.82;;
85243;SDS011;75643;56.928;41.094;2024-03-02T08:04:41;11.30;;;6.85;;
85243;SDS011;75643;56.928;41.094;2024-03-02T08:07:07;10.52;;;7.32;;
85243;SDS011;75643;56.928;41.094;2024-03-02T08:09:35;17.83;;;9.70;;
85243;SDS011;75643;56.928;41.094;2024-03-02T08:12:01;31.45;;;15.50;;
85243;SDS011;75643;56.928;41.094;2024-03-02T08:14:27;15.05;;;7.15;;
85243;SDS011;75643;56.928;41.094;2024-03-02T08:16:53;17.20;;;10.43;;
85243;SDS011;75643;56.928;41.094;2024-03-02T08:19:20;22.58;;;13.00;;
85243;SDS011;75643;56.928;41.094;2024-03-02T08:21:46;13.13;;;9.15;;
85243;SDS011;75643;56.928;41.094;2024-03-02T08:24:14;12.23;;;7.57;;
85243;SDS011;75643;56.928;41.094;2024-03-02T08:26:40;21.35;;;12.60;;
85243;SDS011;75643;56.928;41.094;2024-03-02T08:29:07;14.95;;;9.40;;
85243;SDS011;75643;56.928;41.094;2024-03-02T08:31:33;17.17;;;10.40;;
85243;SDS011;75643;56.928;41.094;2024-03-02T08:33:59;15.10;;;8.75;;
85243;SDS011;75643;56.928;41.094;2024-03-02T08:36:26;9.25;;;6.25;;
85243;SDS011;75643;56.928;41.094;2024-03-02T08:38:52;12.48;;;6.65;;
85243;SDS011;75643;56.928;41.094;2024-03-02T08:41:18;17.20;;;9.70;;
85243;SDS011;75643;56.928;41.094;2024-03-02T08:43:45;32.55;;;16.15;;
85243;SDS011;75643;56.928;41.094;2024-03-02T08:46:12;18.55;;;8.98;;
85243;SDS011;75643;56.928;41.094;2024-03-02T08:48:39;12.85;;;7.38;;
85243;SDS011;75643;56.928;41.094;2024-03-02T08:51:05;15.70;;;8.77;;
85243;SDS011;75643;56.928;41.094;2024-03-02T08:53:33;16.33;;;8.90;;
85243;SDS011;75643;56.928;41.094;2024-03-02T08:56:01;22.65;;;11.00;;
85243;SDS011;75643;56.928;41.094;2024-03-02T08:58:27;10.52;;;7.45;;
85243;SDS011;75643;56.928;41.094;2024-03-02T09:00:57;9.43;;;6.28;;
85243;SDS011;75643;56.928;41.094;2024-03-02T09:03:23;12.88;;;7.53;;
85243;SDS011;75643;56.928;41.094;2024-03-02T09:05:49;8.02;;;5.47;;
85243;SDS011;75643;56.928;41.094;2024-03-02T09:08:16;8.25;;;5.65;;
85243;SDS011;75643;56.928;41.094;2024-03-02T09:10:42;12.40;;;7.45;;
85243;SDS011;75643;56.928;41.094;2024-03-02T09:13:09;8.88;;;6.00;;
85243;SDS011;75643;56.928;41.094;2024-03-02T09:15:36;9.30;;;5.78;;
85243;SDS011;75643;56.928;41.094;2024-03-02T09:18:03;9.65;;;6.55;;
85243;SDS011;75643;56.928;41.094;2024-03-02T09:20:29;8.80;;;4.18;;
85243;SDS011;75643;56.928;41.094;2024-03-02T09:22:56;6.25;;;4.20;;
85243;SDS011;75643;56.928;41.094;2024-03-02T09:25:22;6.68;;;4.20;;
85243;SDS011;75643;56.928;41.094;2024-03-02T09:27:48;7.57;;;5.25;;
85243;SDS011;75643;56.928;41.094;2024-03-02T09:30:14;8.35;;;5.47;;
85243;SDS011;75643;56.928;41.094;2024-03-02T09:32:41;7.78;;;4.90;;
85243;SDS011;75643;56.928;41.094;2024-03-02T09:35:07;6.00;;;3.85;;
85243;SDS011;75643;56.928;41.094;2024-03-02T09:37:35;6.65;;;4.55;;
85243;SDS011;75643;56.928;41.094;2024-03-02T09:40:01;5.93;;;4.10;;
85243;SDS011;75643;56.928;41.094;2024-03-02T09:42:30;11.18;;;6.50;;
85243;SDS011;75643;56.928;41.094;2024-03-02T09:44:56;9.35;;;5.70;;
85243;SDS011;75643;56.928;41.094;2024-03-02T09:47:24;6.50;;;4.00;;
85243;SDS011;75643;56.928;41.094;2024-03-02T09:49:50;6.05;;;3.10;;
85243;SDS011;75643;56.928;41.094;2024-03-02T09:52:16;5.72;;;3.33;;
85243;SDS011;75643;56.928;41.094;2024-03-02T09:54:43;3.53;;;2.40;;
85243;SDS011;75643;56.928;41.094;2024-03-02T09:57:09;5.13;;;3.35;;
85243;SDS011;75643;56.928;41.094;2024-03-02T09:59:35;5.07;;;2.92;;
85243;SDS011;75643;56.928;41.094;2024-03-02T10:02:02;5.30;;;3.67;;
85243;SDS011;75643;56.928;41.094;2024-03-02T10:04:29;6.03;;;3.50;;
85243;SDS011;75643;56.928;41.094;2024-03-02T10:09:36;5.20;;;3.50;;
85243;SDS011;75643;56.928;41.094;2024-03-02T10:12:07;5.55;;;3.53;;
85243;SDS011;75643;56.928;41.094;2024-03-02T10:14:34;7.45;;;3.67;;
85243;SDS011;75643;56.928;41.094;2024-03-02T10:17:01;4.43;;;3.30;;
85243;SDS011;75643;56.928;41.094;2024-03-02T10:19:29;5.88;;;3.63;;
85243;SDS011;75643;56.928;41.094;2024-03-02T10:22:00;3.90;;;2.80;;
85243;SDS011;75643;56.928;41.094;2024-03-02T10:24:34;5.93;;;3.60;;
85243;SDS011;75643;56.928;41.094;2024-03-02T10:27:16;5.63;;;3.30;;
85243;SDS011;75643;56.928;41.094;2024-03-02T10:29:47;4.63;;;3.22;;
85243;SDS011;75643;56.928;41.094;2024-03-02T10:34:42;8.82;;;5.15;;
85243;SDS011;75643;56.928;41.094;2024-03-02T10:37:10;3.75;;;2.95;;
85243;SDS011;75643;56.928;41.094;2024-03-02T10:39:37;3.60;;;2.65;;
85243;SDS011;75643;56.928;41.094;2024-03-02T10:42:07;5.80;;;3.70;;
85243;SDS011;75643;56.928;41.094;2024-03-02T10:44:34;5.95;;;3.67;;
85243;SDS011;75643;56.928;41.094;2024-03-02T10:47:01;6.57;;;4.10;;
85243;SDS011;75643;56.928;41.094;2024-03-02T10:49:30;6.28;;;3.58;;
85243;SDS011;75643;56.928;41.094;2024-03-02T10:51:57;5.25;;;3.58;;
85243;SDS011;75643;56.928;41.094;2024-03-02T10:54:24;4.55;;;2.95;;
85243;SDS011;75643;56.928;41.094;2024-03-02T10:57:01;5.07;;;3.45;;
85243;SDS011;75643;56.928;41.094;2024-03-02T10:59:33;7.15;;;3.42;;
85243;SDS011;75643;56.928;41.094;2024-03-02T11:02:01;6.60;;;3.97;;
85243;SDS011;75643;56.928;41.094;2024-03-02T11:04:30;5.60;;;3.30;;
85243;SDS011;75643;56.928;41.094;2024-03-02T11:07:03;4.80;;;2.95;;
85243;SDS011;75643;56.928;41.094;2024-03-02T11:09:33;7.22;;;3.80;;
85243;SDS011;75643;56.928;41.094;2024-03-02T11:14:45;5.82;;;3.80;;
85243;SDS011;75643;56.928;41.094;2024-03-02T11:17:13;7.28;;;4.13;;
85243;SDS011;75643;56.928;41.094;2024-03-02T11:19:43;5.75;;;4.18;;
85243;SDS011;75643;56.928;41.094;2024-03-02T11:22:11;6.68;;;4.03;;
85243;SDS011;75643;56.928;41.094;2024-03-02T11:24:38;6.97;;;4.13;;
85243;SDS011;75643;56.928;41.094;2024-03-02T11:27:05;7.25;;;4.15;;
85243;SDS011;75643;56.928;41.094;2024-03-02T11:32:05;5.72;;;4.00;;
85243;SDS011;75643;56.928;41.094;2024-03-02T11:34:42;6.28;;;4.20;;
85243;SDS011;75643;56.928;41.094;2024-03-02T11:37:13;7.40;;;5.13;;
85243;SDS011;75643;56.928;41.094;2024-03-02T11:39:42;6.80;;;3.88;;
85243;SDS011;75643;56.928;41.094;2024-03-02T11:42:10;11.52;;;5.70;;
85243;SDS011;75643;56.928;41.094;2024-03-02T11:44:38;7.18;;;5.47;;
85243;SDS011;75643;56.928;41.094;2024-03-02T11:47:08;6.60;;;4.13;;
85243;SDS011;75643;56.928;41.094;2024-03-02T11:49:44;6.88;;;3.80;;
85243;SDS011;75643;56.928;41.094;2024-03-02T11:52:14;6.97;;;4.25;;
85243;SDS011;75643;56.928;41.094;2024-03-02T11:54:43;5.88;;;4.32;;
85243;SDS011;75643;56.928;41.094;2024-03-02T11:57:15;6.82;;;3.60;;
85243;SDS011;75643;56.928;41.094;2024-03-02T11:59:42;5.07;;;4.07;;
85243;SDS011;75643;56.928;41.094;2024-03-02T12:02:14;4.60;;;3.15;;
85243;SDS011;75643;56.928;41.094;2024-03-02T12:04:45;5.13;;;3.65;;
85243;SDS011;75643;56.928;41.094;2024-03-02T12:07:23;6.72;;;4.10;;
85243;SDS011;75643;56.928;41.094;2024-03-02T12:09:59;5.32;;;3.78;;
85243;SDS011;75643;56.928;41.094;2024-03-02T12:12:31;6.60;;;4.20;;
85243;SDS011;75643;56.928;41.094;2024-03-02T12:14:57;6.90;;;3.97;;
85243;SDS011;75643;56.928;41.094;2024-03-02T12:17:26;4.25;;;3.85;;
85243;SDS011;75643;56.928;41.094;2024-03-02T12:19:52;6.90;;;4.28;;
85243;SDS011;75643;56.928;41.094;2024-03-02T12:22:18;5.53;;;3.50;;
85243;SDS011;75643;56.928;41.094;2024-03-02T12:24:44;7.85;;;4.05;;
85243;SDS011;75643;56.928;41.094;2024-03-02T12:27:12;8.20;;;5.18;;
85243;SDS011;75643;56.928;41.094;2024-03-02T12:29:40;6.15;;;4.07;;
85243;SDS011;75643;56.928;41.094;2024-03-02T12:32:07;5.93;;;4.15;;
85243;SDS011;75643;56.928;41.094;2024-03-02T12:34:33;5.18;;;3.70;;
85243;SDS011;75643;56.928;41.094;2024-03-02T12:36:59;7.30;;;4.10;;
85243;SDS011;75643;56.928;41.094;2024-03-02T12:39:25;6.28;;;4.00;;
85243;SDS011;75643;56.928;41.094;2024-03-02T12:41:52;8.70;;;5.28;;
85243;SDS011;75643;56.928;41.094;2024-03-02T12:44:20;10.45;;;6.05;;
85243;SDS011;75643;56.928;41.094;2024-03-02T12:46:46;8.60;;;5.10;;
85243;SDS011;75643;56.928;41.094;2024-03-02T12:49:13;6.68;;;4.47;;
85243;SDS011;75643;56.928;41.094;2024-03-02T12:51:44;6.70;;;4.75;;
85243;SDS011;75643;56.928;41.094;2024-03-02T12:54:13;5.85;;;3.60;;
85243;SDS011;75643;56.928;41.094;2024-03-02T12:56:43;4.68;;;3.10;;
85243;SDS011;75643;56.928;41.094;2024-03-02T12:59:20;6.13;;;3.92;;
85243;SDS011;75643;56.928;41.094;2024-03-02T13:01:49;5.68;;;3.78;;
85243;SDS011;75643;56.928;41.094;2024-03-02T13:04:27;20.65;;;8.38;;
85243;SDS011;75643;56.928;41.094;2024-03-02T13:06:55;8.82;;;4.88;;
85243;SDS011;75643;56.928;41.094;2024-03-02T13:09:24;12.45;;;6.22;;
85243;SDS011;75643;56.928;41.094;2024-03-02T13:11:52;7.80;;;4.63;;
85243;SDS011;75643;56.928;41.094;2024-03-02T13:14:21;7.78;;;4.07;;
85243;SDS011;75643;56.928;41.094;2024-03-02T13:16:50;7.70;;;3.83;;
85243;SDS011;75643;56.928;41.094;2024-03-02T13:19:19;7.53;;;4.10;;
85243;SDS011;75643;56.928;41.094;2024-03-02T13:21:45;7.60;;;4.53;;
85243;SDS011;75643;56.928;41.094;2024-03-02T13:24:12;6.88;;;3.97;;
85243;SDS011;75643;56.928;41.094;2024-03-02T13:26:38;10.07;;;6.15;;
85243;SDS011;75643;56.928;41.094;2024-03-02T13:29:06;10.73;;;5.45;;
85243;SDS011;75643;56.928;41.094;2024-03-02T13:31:33;9.90;;;6.05;;
85243;SDS011;75643;56.928;41.094;2024-03-02T13:33:59;7.68;;;4.57;;
85243;SDS011;75643;56.928;41.094;2024-03-02T13:36:26;4.35;;;3.05;;
85243;SDS011;75643;56.928;41.094;2024-03-02T13:38:52;5.18;;;2.80;;
85243;SDS011;75643;56.928;41.094;2024-03-02T13:41:18;3.92;;;3.17;;
85243;SDS011;75643;56.928;41.094;2024-03-02T13:43:46;7.03;;;3.78;;
85243;SDS011;75643;56.928;41.094;2024-03-02T13:46:13;8.07;;;4.75;;
85243;SDS011;75643;56.928;41.094;2024-03-02T13:48:39;11.85;;;6.32;;
85243;SDS011;75643;56.928;41.094;2024-03-02T13:51:05;6.97;;;3.63;;
85243;SDS011;75643;56.928;41.094;2024-03-02T13:53:31;5.28;;;3.13;;
85243;SDS011;75643;56.928;41.094;2024-03-02T13:55:58;8.00;;;5.45;;
85243;SDS011;75643;56.928;41.094;2024-03-02T13:58:25;7.40;;;4.35;;
85243;SDS011;75643;56.928;41.094;2024-03-02T14:00:51;5.75;;;3.67;;
85243;SDS011;75643;56.928;41.094;2024-03-02T14:03:18;4.47;;;3.05;;
85243;SDS011;75643;56.928;41.094;2024-03-02T14:05:44;3.92;;;2.90;;
85243;SDS011;75643;56.928;41.094;2024-03-02T14:08:11;6.32;;;3.30;;
85243;SDS011;75643;56.928;41.094;2024-03-02T14:10:39;5.07;;;3.40;;
85243;SDS011;75643;56.928;41.094;2024-03-02T14:13:05;9.35;;;5.40;;
85243;SDS011;75643;56.928;41.094;2024-03-02T14:15:31;8.55;;;5.40;;
85243;SDS011;75643;56.928;41.094;2024-03-02T14:17:57;9.75;;;4.50;;
85243;SDS011;75643;56.928;41.094;2024-03-02T14:20:24;7.28;;;5.30;;
85243;SDS011;75643;56.928;41.094;2024-03-02T14:22:50;8.15;;;5.00;;
85243;SDS011;75643;56.928;41.094;2024-03-02T14:25:17;14.23;;;7.60;;
85243;SDS011;75643;56.928;41.094;2024-03-02T14:27:44;13.70;;;7.78;;
85243;SDS011;75643;56.928;41.094;2024-03-02T14:30:10;9.20;;;5.65;;
85243;SDS011;75643;56.928;41.094;2024-03-02T14:32:37;8.50;;;4.68;;
85243;SDS011;75643;56.928;41.094;2024-03-02T14:35:03;4.57;;;2.85;;
85243;SDS011;75643;56.928;41.094;2024-03-02T14:37:30;6.13;;;3.85;;
85243;SDS011;75643;56.928;41.094;2024-03-02T14:39:56;5.28;;;3.47;;
85243;SDS011;75643;56.928;41.094;2024-03-02T14:42:22;6.95;;;4.95;;